Observation data for Clarendon on 12/09/2018      Previous  Date  Next       Current Mesonet Observations  Soil Data  Daily Summary Page  Observations in Plain Language
KCES 090600Z 36003KT M07/M09 A3031 RMK A01 T10651090  RH  082%=      5-min Rain = 0
KCES 090605Z 35003KT M06/M09 A3031 RMK A01 T10611085  RH  083%=      5-min Rain = 0
KCES 090610Z 35004KT M06/M09 A303 RMK A01 T10611086  RH  082%=      5-min Rain = 0
KCES 090615Z 01004KT M06/M09 A303 RMK A01 T10571086  RH  080%=      5-min Rain = 0
KCES 090620Z 01004KT M06/M09 A303 RMK A01 T10571087  RH  079%=      5-min Rain = 0
KCES 090625Z 00003KT M06/M09 A303 RMK A01 T10571089  RH  078%=      5-min Rain = 0
KCES 090630Z 35003KT M06/M09 A303 RMK A01 T10601092  RH  078%=      5-min Rain = 0
KCES 090635Z 35003KT M06/M09 A303 RMK A01 T10591089  RH  079%=      5-min Rain = 0
KCES 090640Z 33002KT M06/M09 A303 RMK A01 T10561088  RH  078%=      5-min Rain = 0
KCES 090645Z 31003KT M06/M09 A303 RMK A01 T10561090  RH  077%=      5-min Rain = 0
KCES 090650Z 33003KT M06/M09 A303 RMK A01 T10561090  RH  076%=      5-min Rain = 0
KCES 090655Z 34002KT M05/M09 A303 RMK A01 T10541091  RH  075%=      5-min Rain = 0
KCES 090700Z 29001KT M05/M09 A303 RMK A01 T10531092  RH  074%=      5-min Rain = 0
KCES 090705Z 30001KT M06/M09 A3031 RMK A01 T10561094  RH  074%=      5-min Rain = 0
KCES 090710Z 31001KT M06/M09 A303 RMK A01 T10581093  RH  076%=      5-min Rain = 0
KCES 090715Z 31001KT M06/M09 A303 RMK A01 T10581093  RH  077%=      5-min Rain = 0
KCES 090720Z 30002KT M06/M09 A303 RMK A01 T10591092  RH  077%=      5-min Rain = 0
KCES 090725Z 29002KT M06/M09 A303 RMK A01 T10571092  RH  076%=      5-min Rain = 0
KCES 090730Z 30002KT M06/M09 A303 RMK A01 T10571093  RH  076%=      5-min Rain = 0
KCES 090735Z 30003KT M06/M09 A303 RMK A01 T10581094  RH  076%=      5-min Rain = 0
KCES 090740Z 28003KT M06/M10 A303 RMK A01 T10611095  RH  077%=      5-min Rain = 0
KCES 090745Z 29003KT M06/M09 A303 RMK A01 T10611094  RH  077%=      5-min Rain = 0
KCES 090750Z 30003KT M06/M10 A303 RMK A01 T10611095  RH  077%=      5-min Rain = 0
KCES 090755Z 30002KT M06/M10 A303 RMK A01 T10621095  RH  077%=      5-min Rain = 0
KCES 090800Z 31004KT M06/M09 A303 RMK A01 T10611094  RH  077%=      5-min Rain = 0
KCES 090805Z 31004KT M06/M10 A303 RMK A01 T10571095  RH  074%=      5-min Rain = 0
KCES 090810Z 31003KT M06/M10 A303 RMK A01 T10581097  RH  074%=      5-min Rain = 0
KCES 090815Z 31003KT M06/M10 A303 RMK A01 T10561097  RH  073%=      5-min Rain = 0
KCES 090820Z 30002KT M05/M10 A303 RMK A01 T10541097  RH  071%=      5-min Rain = 0
KCES 090825Z 32002KT M05/M10 A303 RMK A01 T10531097  RH  071%=      5-min Rain = 0
KCES 090830Z 31002KT M05/M10 A303 RMK A01 T10531098  RH  071%=      5-min Rain = 0
KCES 090835Z 30001KT M05/M10 A303 RMK A01 T10541098  RH  071%=      5-min Rain = 0
KCES 090840Z 25000KT M06/M10 A303 RMK A01 T10561099  RH  072%=      5-min Rain = 0
KCES 090845Z 28001KT M06/M10 A3031 RMK A01 T10571098  RH  073%=      5-min Rain = 0
KCES 090850Z 22000KT M06/M10 A3031 RMK A01 T10581097  RH  074%=      5-min Rain = 0
KCES 090855Z 30004KT M06/M10 A3031 RMK A01 T10571097  RH  073%=      5-min Rain = 0
KCES 090900Z 30002KT M06/M10 A3031 RMK A01 T10561098  RH  072%=      5-min Rain = 0
KCES 090905Z 29001KT M06/M10 A3031 RMK A01 T10601098  RH  074%=      5-min Rain = 0
KCES 090910Z 29002KT M06/M10 A3031 RMK A01 T10611097  RH  076%=      5-min Rain = 0
KCES 090915Z 26001KT M06/M10 A303 RMK A01 T10621097  RH  076%=      5-min Rain = 0
KCES 090920Z 30002KT M06/M10 A303 RMK A01 T10621097  RH  077%=      5-min Rain = 0
KCES 090925Z 30003KT M06/M10 A3031 RMK A01 T10631097  RH  076%=      5-min Rain = 0
KCES 090930Z 29002KT M06/M10 A3031 RMK A01 T10631097  RH  076%=      5-min Rain = 0
KCES 090935Z 29002KT M06/M10 A3031 RMK A01 T10621096  RH  077%=      5-min Rain = 0
KCES 090940Z 29002KT M06/M10 A3031 RMK A01 T10621096  RH  077%=      5-min Rain = 0
KCES 090945Z 29001KT M06/M10 A3031 RMK A01 T10611097  RH  076%=      5-min Rain = 0
KCES 090950Z 32001KT M06/M10 A3031 RMK A01 T10611097  RH  075%=      5-min Rain = 0
KCES 090955Z 29001KT M06/M10 A3031 RMK A01 T10611098  RH  075%=      5-min Rain = 0
KCES 091000Z 30000KT M06/M10 A3031 RMK A01 T10621099  RH  075%=      5-min Rain = 0
KCES 091005Z 30001KT M06/M10 A303 RMK A01 T10631099  RH  075%=      5-min Rain = 0
KCES 091010Z 25001KT M06/M10 A303 RMK A01 T10621099  RH  075%=      5-min Rain = 0
KCES 091015Z 29001KT M06/M10 A303 RMK A01 T10621099  RH  075%=      5-min Rain = 0
KCES 091020Z 27000KT M06/M10 A303 RMK A01 T10631100  RH  075%=      5-min Rain = 0
KCES 091025Z 26000KT M06/M10 A303 RMK A01 T10641100  RH  075%=      5-min Rain = 0
KCES 091030Z 34001KT M06/M10 A303 RMK A01 T10641100  RH  075%=      5-min Rain = 0
KCES 091035Z 34002KT M07/M10 A303 RMK A01 T10651100  RH  076%=      5-min Rain = 0
KCES 091040Z 31002KT M07/M10 A3031 RMK A01 T10651101  RH  076%=      5-min Rain = 0
KCES 091045Z 32001KT M07/M10 A3031 RMK A01 T10671101  RH  076%=      5-min Rain = 0
KCES 091050Z 33002KT M07/M10 A3031 RMK A01 T10681101  RH  077%=      5-min Rain = 0
KCES 091055Z 34001KT M07/M10 A3031 RMK A01 T10681101  RH  078%=      5-min Rain = 0
KCES 091100Z 06000KT M07/M10 A303 RMK A01 T10671099  RH  078%=      5-min Rain = 0
KCES 091105Z 36002KT M07/M10 A303 RMK A01 T10651099  RH  077%=      5-min Rain = 0
KCES 091110Z 34003KT M06/M10 A303 RMK A01 T10631099  RH  076%=      5-min Rain = 0
KCES 091115Z 34003KT M06/M10 A303 RMK A01 T10631099  RH  075%=      5-min Rain = 0
KCES 091120Z 35004KT M06/M10 A303 RMK A01 T10641099  RH  076%=      5-min Rain = 0
KCES 091125Z 33007KT M06/M10 A303 RMK A01 T10641097  RH  077%=      5-min Rain = 0
KCES 091130Z 34006KT M06/M10 A303 RMK A01 T10621097  RH  076%=      5-min Rain = 0
KCES 091135Z 34004KT M06/M10 A303 RMK A01 T10621097  RH  076%=      5-min Rain = 0
KCES 091140Z 33003KT M06/M10 A3031 RMK A01 T10641097  RH  077%=      5-min Rain = 0
KCES 091145Z 34001KT M07/M10 A3031 RMK A01 T10651098  RH  077%=      5-min Rain = 0
KCES 091150Z 04001KT M07/M10 A3031 RMK A01 T10651098  RH  077%=      5-min Rain = 0
KCES 091155Z 04001KT M07/M10 A303 RMK A01 T10651098  RH  077%=      5-min Rain = 0
KCES 091200Z 01001KT M06/M10 A303 RMK A01 T10641098  RH  076%=      5-min Rain = 0
KCES 091205Z 35002KT M06/M10 A303 RMK A01 T10631099  RH  076%=      5-min Rain = 0
KCES 091210Z 34002KT M06/M10 A3031 RMK A01 T10631099  RH  075%=      5-min Rain = 0
KCES 091215Z 32001KT M06/M10 A3031 RMK A01 T10631100  RH  075%=      5-min Rain = 0
KCES 091220Z 00000KT M06/M10 A3031 RMK A01 T10631100  RH  075%=      5-min Rain = 0
KCES 091225Z 31002KT M06/M10 A3031 RMK A01 T10621100  RH  075%=      5-min Rain = 0
KCES 091230Z 30001KT M06/M10 A3031 RMK A01 T10611100  RH  074%=      5-min Rain = 0
KCES 091235Z 32001KT M06/M10 A3032 RMK A01 T10611100  RH  073%=      5-min Rain = 0
KCES 091240Z 31001KT M06/M10 A3032 RMK A01 T10601101  RH  073%=      5-min Rain = 0
KCES 091245Z 30001KT M06/M10 A3032 RMK A01 T10601101  RH  072%=      5-min Rain = 0
KCES 091250Z 29001KT M06/M10 A3032 RMK A01 T10601101  RH  073%=      5-min Rain = 0
KCES 091255Z 31003KT M06/M10 A3032 RMK A01 T10621101  RH  074%=      5-min Rain = 0
KCES 091300Z 30007KT M06/M10 A3033 RMK A01 T10621098  RH  076%=      5-min Rain = 0
KCES 091305Z 30009KT M06/M10 A3033 RMK A01 T10581096  RH  074%=      5-min Rain = 0
KCES 091310Z 30008KT M06/M10 A3033 RMK A01 T10551095  RH  073%=      5-min Rain = 0
KCES 091315Z 30008KT M05/M09 A3033 RMK A01 T10541094  RH  073%=      5-min Rain = 0
KCES 091320Z 31008KT M05/M10 A3033 RMK A01 T10541095  RH  073%=      5-min Rain = 0
KCES 091325Z 31008KT M05/M10 A3034 RMK A01 T10541095  RH  073%=      5-min Rain = 0
KCES 091330Z 31009KT M05/M10 A3034 RMK A01 T10541096  RH  072%=      5-min Rain = 0
KCES 091335Z 31009KT M05/M10 A3034 RMK A01 T10531096  RH  072%=      5-min Rain = 0
KCES 091340Z 31009KT M05/M10 A3034 RMK A01 T10541095  RH  072%=      5-min Rain = 0
KCES 091345Z 31009KT M05/M09 A3034 RMK A01 T10541094  RH  073%=      5-min Rain = 0
KCES 091350Z 31009KT M05/M09 A3034 RMK A01 T10531093  RH  073%=      5-min Rain = 0
KCES 091355Z 32009KT M05/M09 A3034 RMK A01 T10511091  RH  073%=      5-min Rain = 0
KCES 091400Z 32010KT M05/M09 A3034 RMK A01 T10501090  RH  073%=      5-min Rain = 0
KCES 091405Z 32009KT M05/M09 A3034 RMK A01 T10481089  RH  073%=      5-min Rain = 0
KCES 091410Z 32009KT M05/M09 A3034 RMK A01 T10471089  RH  072%=      5-min Rain = 0
KCES 091415Z 32009KT M05/M09 A3034 RMK A01 T10461089  RH  072%=      5-min Rain = 0
KCES 091420Z 32009KT M04/M09 A3034 RMK A01 T10441086  RH  072%=      5-min Rain = 0
KCES 091425Z 32009KT M04/M09 A3034 RMK A01 T10391085  RH  070%=      5-min Rain = 0
KCES 091430Z 32009KT M04/M08 A3035 RMK A01 T10361083  RH  070%=      5-min Rain = 0
KCES 091435Z 32010KT M04/M08 A3035 RMK A01 T10351083  RH  070%=      5-min Rain = 0
KCES 091440Z 32009KT M04/M08 A3035 RMK A01 T10351082  RH  070%=      5-min Rain = 0
KCES 091445Z 32008KT M03/M08 A3035 RMK A01 T10331080  RH  070%=      5-min Rain = 0
KCES 091450Z 32009KT M03/M08 A3036 RMK A01 T10291080  RH  068%=      5-min Rain = 0
KCES 091455Z 32007KT M03/M08 A3036 RMK A01 T10291079  RH  068%=      5-min Rain = 0
KCES 091500Z 32006KT M03/M08 A3036 RMK A01 T10271076  RH  069%=      5-min Rain = 0
KCES 091505Z 32006KT M02/M07 A3036 RMK A01 T10211071  RH  069%=      5-min Rain = 0
KCES 091510Z 32007KT M02/M07 A3036 RMK A01 T10161072  RH  065%=      5-min Rain = 0
KCES 091515Z 32008KT M01/M07 A3036 RMK A01 T10131073  RH  063%=      5-min Rain = 0
KCES 091520Z 33007KT M01/M07 A3036 RMK A01 T10101068  RH  064%=      5-min Rain = 0
KCES 091525Z 33007KT M01/M07 A3037 RMK A01 T10071068  RH  063%=      5-min Rain = 0
KCES 091530Z 33007KT M00/M07 A3037 RMK A01 T10031067  RH  062%=      5-min Rain = 0
KCES 091535Z 33008KT 00/M07 A3037 RMK A01 T00011066  RH  061%=      5-min Rain = 0
KCES 091540Z 33008KT 01/M07 A3037 RMK A01 T00051065  RH  059%=      5-min Rain = 0
KCES 091545Z 33009KT 01/M07 A3038 RMK A01 T00071069  RH  057%=      5-min Rain = 0
KCES 091550Z 33009KT 01/M07 A3038 RMK A01 T00111067  RH  056%=      5-min Rain = 0
KCES 091555Z 33008KT 01/M07 A3038 RMK A01 T00141066  RH  055%=      5-min Rain = 0
KCES 091600Z 33008KT 02/M07 A3038 RMK A01 T00171068  RH  053%=      5-min Rain = 0
KCES 091605Z 34009KT 02/M07 A3038 RMK A01 T00201069  RH  052%=      5-min Rain = 0
KCES 091610Z 34008KT 02/M07 A3038 RMK A01 T00221069  RH  051%=      5-min Rain = 0
KCES 091615Z 33007KT 03/M07 A3038 RMK A01 T00251067  RH  051%=      5-min Rain = 0
KCES 091620Z 34007KT 03/M06 A3038 RMK A01 T00301064  RH  050%=      5-min Rain = 0
KCES 091625Z 35008KT 03/M07 A3038 RMK A01 T00311066  RH  049%=      5-min Rain = 0
KCES 091630Z 34007KT 03/M07 A3038 RMK A01 T00321066  RH  049%=      5-min Rain = 0
KCES 091635Z 35006KT 04/M06 A3038 RMK A01 T00351063  RH  048%=      5-min Rain = 0
KCES 091640Z 34006KT 04/M06 A3038 RMK A01 T00391062  RH  048%=      5-min Rain = 0
KCES 091645Z 34005KT 04/M06 A3039 RMK A01 T00421061  RH  047%=      5-min Rain = 0
KCES 091650Z 34006KT 05/M06 A3038 RMK A01 T00451062  RH  046%=      5-min Rain = 0
KCES 091655Z 36005KT 05/M06 A3038 RMK A01 T00461062  RH  046%=      5-min Rain = 0
KCES 091700Z 36006KT 05/M06 A3038 RMK A01 T00481060  RH  045%=      5-min Rain = 0
KCES 091705Z 00006KT 05/M06 A3038 RMK A01 T00511061  RH  044%=      5-min Rain = 0
KCES 091710Z 00006KT 05/M06 A3038 RMK A01 T00521062  RH  044%=      5-min Rain = 0
KCES 091715Z 01005KT 05/M06 A3038 RMK A01 T00531061  RH  043%=      5-min Rain = 0
KCES 091720Z 03007KT 06/M06 A3037 RMK A01 T00571059  RH  043%=      5-min Rain = 0
KCES 091725Z 04005KT 06/M06 A3037 RMK A01 T00601059  RH  042%=      5-min Rain = 0
KCES 091730Z 04005KT 06/M06 A3037 RMK A01 T00611057  RH  043%=      5-min Rain = 0
KCES 091735Z 01003KT 06/M06 A3037 RMK A01 T00641056  RH  042%=      5-min Rain = 0
KCES 091740Z 04005KT 06/M06 A3037 RMK A01 T00641057  RH  042%=      5-min Rain = 0
KCES 091745Z 04005KT 06/M06 A3037 RMK A01 T00641059  RH  041%=      5-min Rain = 0
KCES 091750Z 02005KT 06/M06 A3037 RMK A01 T00641060  RH  041%=      5-min Rain = 0
KCES 091755Z 03004KT 07/M06 A3037 RMK A01 T00661060  RH  040%=      5-min Rain = 0
KCES 091800Z 08003KT 07/M06 A3037 RMK A01 T00671061  RH  040%=      5-min Rain = 0
KCES 091805Z 02005KT 07/M06 A3036 RMK A01 T00691059  RH  040%=      5-min Rain = 0
KCES 091810Z 05004KT 07/M06 A3036 RMK A01 T00721062  RH  038%=      5-min Rain = 0
KCES 091815Z 03004KT 07/M07 A3036 RMK A01 T00721066  RH  037%=      5-min Rain = 0
KCES 091820Z 34005KT 07/M06 A3035 RMK A01 T00721064  RH  037%=      5-min Rain = 0
KCES 091825Z 34002KT 07/M06 A3035 RMK A01 T00731064  RH  037%=      5-min Rain = 0
KCES 091830Z 03004KT 08/M06 A3035 RMK A01 T00751061  RH  037%=      5-min Rain = 0
KCES 091835Z 04005KT 08/M06 A3034 RMK A01 T00781063  RH  036%=      5-min Rain = 0
KCES 091840Z 01004KT 08/M07 A3034 RMK A01 T00781065  RH  036%=      5-min Rain = 0
KCES 091845Z 32002KT 08/M07 A3034 RMK A01 T00791066  RH  035%=      5-min Rain = 0
KCES 091850Z 03003KT 08/M07 A3033 RMK A01 T00791065  RH  035%=      5-min Rain = 0
KCES 091855Z 03003KT 08/M07 A3033 RMK A01 T00801065  RH  035%=      5-min Rain = 0
KCES 091900Z 36004KT 08/M06 A3033 RMK A01 T00821064  RH  035%=      5-min Rain = 0
KCES 091905Z 09002KT 08/M07 A3033 RMK A01 T00841065  RH  034%=      5-min Rain = 0
KCES 091910Z 06002KT 09/M07 A3033 RMK A01 T00851066  RH  034%=      5-min Rain = 0
KCES 091915Z 09001KT 09/M07 A3032 RMK A01 T00861066  RH  034%=      5-min Rain = 0
KCES 091920Z 07004KT 09/M06 A3032 RMK A01 T00881064  RH  034%=      5-min Rain = 0
KCES 091925Z 04004KT 09/M06 A3032 RMK A01 T00881064  RH  034%=      5-min Rain = 0
KCES 091930Z 07005KT 09/M07 A3032 RMK A01 T00851066  RH  034%=      5-min Rain = 0
KCES 091935Z 07004KT 09/M07 A3032 RMK A01 T00851066  RH  034%=      5-min Rain = 0
KCES 091940Z 06003KT 08/M07 A3032 RMK A01 T00841067  RH  034%=      5-min Rain = 0
KCES 091945Z 31001KT 09/M07 A3032 RMK A01 T00881067  RH  033%=      5-min Rain = 0
KCES 091950Z 26001KT 09/M07 A3032 RMK A01 T00901066  RH  033%=      5-min Rain = 0
KCES 091955Z 03003KT 09/M07 A3031 RMK A01 T00921066  RH  032%=      5-min Rain = 0
KCES 092000Z 05004KT 09/M07 A3031 RMK A01 T00921065  RH  032%=      5-min Rain = 0
KCES 092005Z 05002KT 09/M07 A3031 RMK A01 T00921066  RH  032%=      5-min Rain = 0
KCES 092010Z 04004KT 09/M07 A3031 RMK A01 T00931066  RH  032%=      5-min Rain = 0
KCES 092015Z 09002KT 09/M07 A3031 RMK A01 T00931066  RH  032%=      5-min Rain = 0
KCES 092020Z 02003KT 10/M07 A3031 RMK A01 T00951066  RH  031%=      5-min Rain = 0
KCES 092025Z 35003KT 09/M07 A3031 RMK A01 T00941066  RH  032%=      5-min Rain = 0
KCES 092030Z 01003KT 10/M06 A3031 RMK A01 T00971064  RH  032%=      5-min Rain = 0
KCES 092035Z 13001KT 10/M07 A3031 RMK A01 T00981065  RH  031%=      5-min Rain = 0
KCES 092040Z 22001KT 10/M06 A3031 RMK A01 T01031064  RH  030%=      5-min Rain = 0
KCES 092045Z 25002KT 10/M06 A303 RMK A01 T01021064  RH  031%=      5-min Rain = 0
KCES 092050Z 31002KT 10/M06 A303 RMK A01 T01021062  RH  031%=      5-min Rain = 0
KCES 092055Z 32002KT 10/M06 A3031 RMK A01 T01031061  RH  031%=      5-min Rain = 0
KCES 092100Z 26004KT 10/M06 A3031 RMK A01 T01041064  RH  030%=      5-min Rain = 0
KCES 092105Z 26004KT 10/M06 A3031 RMK A01 T01001064  RH  031%=      5-min Rain = 0
KCES 092110Z 27003KT 10/M06 A3031 RMK A01 T00991064  RH  031%=      5-min Rain = 0
KCES 092115Z 20001KT 10/M06 A3031 RMK A01 T01001064  RH  031%=      5-min Rain = 0
KCES 092120Z 24002KT 11/M06 A303 RMK A01 T01061062  RH  030%=      5-min Rain = 0
KCES 092125Z 26002KT 10/M06 A3031 RMK A01 T01041063  RH  030%=      5-min Rain = 0
KCES 092130Z 16001KT 10/M06 A3031 RMK A01 T01031063  RH  030%=      5-min Rain = 0
KCES 092135Z 29004KT 10/M06 A3031 RMK A01 T01021061  RH  031%=      5-min Rain = 0
KCES 092140Z 29003KT 10/M06 A3031 RMK A01 T01021059  RH  032%=      5-min Rain = 0
KCES 092145Z 29001KT 11/M06 A3031 RMK A01 T01051059  RH  031%=      5-min Rain = 0
KCES 092150Z 28003KT 10/M06 A3031 RMK A01 T01041061  RH  031%=      5-min Rain = 0
KCES 092155Z 34000KT 11/M06 A3031 RMK A01 T01051060  RH  031%=      5-min Rain = 0
KCES 092200Z 25003KT 11/M06 A303 RMK A01 T01061061  RH  030%=      5-min Rain = 0
KCES 092205Z 27002KT 11/M06 A303 RMK A01 T01051060  RH  031%=      5-min Rain = 0
KCES 092210Z 26002KT 11/M06 A303 RMK A01 T01051060  RH  031%=      5-min Rain = 0
KCES 092215Z 26003KT 10/M06 A303 RMK A01 T01041059  RH  031%=      5-min Rain = 0
KCES 092220Z 28002KT 11/M06 A303 RMK A01 T01051058  RH  031%=      5-min Rain = 0
KCES 092225Z 25003KT 11/M06 A3031 RMK A01 T01061059  RH  031%=      5-min Rain = 0
KCES 092230Z 22002KT 10/M06 A3031 RMK A01 T01041060  RH  031%=      5-min Rain = 0
KCES 092235Z 26001KT 11/M06 A3031 RMK A01 T01061058  RH  031%=      5-min Rain = 0
KCES 092240Z 28002KT 11/M06 A3031 RMK A01 T01051058  RH  031%=      5-min Rain = 0
KCES 092245Z 28003KT 10/M06 A3031 RMK A01 T01041057  RH  032%=      5-min Rain = 0.01
KCES 092250Z 31003KT 10/M06 A3031 RMK A01 T01031057  RH  032%=      5-min Rain = 0
KCES 092255Z 30003KT 10/M06 A3031 RMK A01 T01001058  RH  032%=      5-min Rain = 0
KCES 092300Z 28002KT 10/M06 A3031 RMK A01 T01001057  RH  033%=      5-min Rain = 0
KCES 092305Z 26002KT 10/M06 A3031 RMK A01 T01001058  RH  032%=      5-min Rain = 0
KCES 092310Z 26001KT 10/M06 A3031 RMK A01 T01011059  RH  032%=      5-min Rain = 0
KCES 092315Z 25001KT 10/M06 A3031 RMK A01 T01011059  RH  032%=      5-min Rain = 0
KCES 092320Z 22001KT 10/M06 A3031 RMK A01 T00991058  RH  033%=      5-min Rain = 0
KCES 092325Z 20003KT 09/M06 A3031 RMK A01 T00901060  RH  034%=      5-min Rain = 0
KCES 092330Z 21003KT 08/M06 A3031 RMK A01 T00801060  RH  037%=      5-min Rain = 0
KCES 092335Z 22004KT 07/M06 A3031 RMK A01 T00671060  RH  040%=      5-min Rain = 0
KCES 092340Z 21004KT 06/M06 A3031 RMK A01 T00571059  RH  043%=      5-min Rain = 0
KCES 092345Z 20004KT 05/M06 A3031 RMK A01 T00511060  RH  045%=      5-min Rain = 0
KCES 092350Z 20004KT 04/M06 A3031 RMK A01 T00411060  RH  048%=      5-min Rain = 0
KCES 092355Z 19005KT 03/M06 A3032 RMK A01 T00311058  RH  052%=      5-min Rain = 0
KCES 100000Z 19004KT 03/M06 A3032 RMK A01 T00261058  RH  054%=      5-min Rain = 0
KCES 100005Z 20004KT 02/M06 A3032 RMK A01 T00161061  RH  057%=      5-min Rain = 0
KCES 100010Z 20004KT 01/M06 A3032 RMK A01 T00141055  RH  060%=      5-min Rain = 0
KCES 100015Z 20005KT 01/M06 A3033 RMK A01 T00141056  RH  060%=      5-min Rain = 0
KCES 100020Z 20004KT 01/M06 A3033 RMK A01 T00091056  RH  062%=      5-min Rain = 0
KCES 100025Z 20004KT M00/M06 A3033 RMK A01 T10011061  RH  064%=      5-min Rain = 0
KCES 100030Z 21004KT M00/M06 A3033 RMK A01 T10031056  RH  067%=      5-min Rain = 0
KCES 100035Z 22004KT 00/05 A3034 RMK A01 T00-00-53  RH  067%=      5-min Rain = 0
KCES 100040Z 21004KT 01/M05 A3034 RMK A01 T00061051  RH  066%=      5-min Rain = 0
KCES 100045Z 20004KT 01/M05 A3034 RMK A01 T00101051  RH  064%=      5-min Rain = 0
KCES 100050Z 21003KT 01/M05 A3034 RMK A01 T00081054  RH  063%=      5-min Rain = 0
KCES 100055Z 23002KT 00/M06 A3034 RMK A01 T00021057  RH  065%=      5-min Rain = 0
KCES 100100Z 24003KT 00/M05 A3034 RMK A01 T00031052  RH  067%=      5-min Rain = 0
KCES 100105Z 26002KT 01/M05 A3034 RMK A01 T00101050  RH  064%=      5-min Rain = 0
KCES 100110Z 25002KT 02/M05 A3034 RMK A01 T00151049  RH  063%=      5-min Rain = 0
KCES 100115Z 24002KT 02/M05 A3034 RMK A01 T00211047  RH  061%=      5-min Rain = 0
KCES 100120Z 21002KT 02/M05 A3034 RMK A01 T00231052  RH  058%=      5-min Rain = 0
KCES 100125Z 23003KT 02/M05 A3034 RMK A01 T00181049  RH  061%=      5-min Rain = 0
KCES 100130Z 21003KT 02/M05 A3034 RMK A01 T00181050  RH  061%=      5-min Rain = 0
KCES 100135Z 22003KT 02/M05 A3034 RMK A01 T00181050  RH  061%=      5-min Rain = 0
KCES 100140Z 24003KT 01/M05 A3035 RMK A01 T00131052  RH  062%=      5-min Rain = 0
KCES 100145Z 25004KT 01/M05 A3035 RMK A01 T00111051  RH  064%=      5-min Rain = 0
KCES 100150Z 25002KT 01/M05 A3035 RMK A01 T00121050  RH  063%=      5-min Rain = 0
KCES 100155Z 25001KT 01/M05 A3035 RMK A01 T00121051  RH  063%=      5-min Rain = 0
KCES 100200Z 24001KT 01/M05 A3035 RMK A01 T00101050  RH  064%=      5-min Rain = 0
KCES 100205Z 26002KT 01/M05 A3035 RMK A01 T00101049  RH  065%=      5-min Rain = 0
KCES 100210Z 27002KT 01/M05 A3035 RMK A01 T00101051  RH  064%=      5-min Rain = 0
KCES 100215Z 27002KT 01/M05 A3035 RMK A01 T00061053  RH  065%=      5-min Rain = 0
KCES 100220Z 27003KT 01/M05 A3035 RMK A01 T00081049  RH  066%=      5-min Rain = 0
KCES 100225Z 28002KT 01/M05 A3035 RMK A01 T00121049  RH  064%=      5-min Rain = 0
KCES 100230Z 29002KT 01/M05 A3035 RMK A01 T00121050  RH  063%=      5-min Rain = 0
KCES 100235Z 26002KT 01/M05 A3035 RMK A01 T00121049  RH  064%=      5-min Rain = 0
KCES 100240Z 24002KT 01/M05 A3035 RMK A01 T00101051  RH  064%=      5-min Rain = 0
KCES 100245Z 23002KT 01/M05 A3035 RMK A01 T00051050  RH  066%=      5-min Rain = 0
KCES 100250Z 26002KT 00/M05 A3035 RMK A01 T00041049  RH  067%=      5-min Rain = 0
KCES 100255Z 25002KT 01/M05 A3035 RMK A01 T00061051  RH  066%=      5-min Rain = 0
KCES 100300Z 23002KT M01/M06 A3035 RMK A01 T10081060  RH  068%=      5-min Rain = 0
KCES 100305Z 24002KT M02/M06 A3035 RMK A01 T10191058  RH  075%=      5-min Rain = 0
KCES 100310Z 24002KT M01/M05 A3035 RMK A01 T10131054  RH  074%=      5-min Rain = 0
KCES 100315Z 25002KT M01/M06 A3035 RMK A01 T10111057  RH  071%=      5-min Rain = 0
KCES 100320Z 28002KT M02/M06 A3035 RMK A01 T10191063  RH  072%=      5-min Rain = 0
KCES 100325Z 27002KT M03/M07 A3035 RMK A01 T10281067  RH  075%=      5-min Rain = 0
KCES 100330Z 28003KT M03/M06 A3035 RMK A01 T10271058  RH  079%=      5-min Rain = 0
KCES 100335Z 28003KT M02/M05 A3035 RMK A01 T10191054  RH  077%=      5-min Rain = 0
KCES 100340Z 28004KT M01/M05 A3035 RMK A01 T10131054  RH  074%=      5-min Rain = 0
KCES 100345Z 28004KT M01/M05 A3035 RMK A01 T10081054  RH  071%=      5-min Rain = 0
KCES 100350Z 29004KT M01/M06 A3035 RMK A01 T10071056  RH  069%=      5-min Rain = 0
KCES 100355Z 29004KT M01/M06 A3035 RMK A01 T10101061  RH  069%=      5-min Rain = 0
KCES 100400Z 30004KT M02/M06 A3036 RMK A01 T10151064  RH  069%=      5-min Rain = 0
KCES 100405Z 30003KT M02/M07 A3036 RMK A01 T10191066  RH  071%=      5-min Rain = 0
KCES 100410Z 29002KT M02/M06 A3036 RMK A01 T10191064  RH  071%=      5-min Rain = 0
KCES 100415Z 29001KT M02/M06 A3036 RMK A01 T10171063  RH  071%=      5-min Rain = 0
KCES 100420Z 31002KT M01/M06 A3035 RMK A01 T10141063  RH  069%=      5-min Rain = 0
KCES 100425Z 30004KT M01/M07 A3035 RMK A01 T10091065  RH  066%=      5-min Rain = 0
KCES 100430Z 28003KT M01/M07 A3035 RMK A01 T10141066  RH  068%=      5-min Rain = 0
KCES 100435Z 28003KT M02/M07 A3035 RMK A01 T10171067  RH  069%=      5-min Rain = 0
KCES 100440Z 27004KT M02/M07 A3035 RMK A01 T10171067  RH  069%=      5-min Rain = 0
KCES 100445Z 27005KT M02/M07 A3035 RMK A01 T10171067  RH  068%=      5-min Rain = 0
KCES 100450Z 28005KT M02/M07 A3035 RMK A01 T10151067  RH  068%=      5-min Rain = 0
KCES 100455Z 29005KT M01/M07 A3035 RMK A01 T10141067  RH  067%=      5-min Rain = 0
KCES 100500Z 01001KT M02/M07 A3036 RMK A01 T10171068  RH  068%=      5-min Rain = 0
KCES 100505Z 31001KT M02/M07 A3036 RMK A01 T10171068  RH  068%=      5-min Rain = 0
KCES 100510Z 29001KT M02/M07 A3036 RMK A01 T10171069  RH  068%=      5-min Rain = 0
KCES 100515Z 29003KT M02/M07 A3035 RMK A01 T10161067  RH  068%=      5-min Rain = 0
KCES 100520Z 29004KT M02/M07 A3035 RMK A01 T10161068  RH  068%=      5-min Rain = 0
KCES 100525Z 29004KT M02/M07 A3035 RMK A01 T10201069  RH  069%=      5-min Rain = 0
KCES 100530Z 29006KT M03/M07 A3035 RMK A01 T10261070  RH  072%=      5-min Rain = 0
KCES 100535Z 28006KT M03/M07 A3035 RMK A01 T10281070  RH  073%=      5-min Rain = 0
KCES 100540Z 29006KT M03/M07 A3035 RMK A01 T10281069  RH  073%=      5-min Rain = 0
KCES 100545Z 29007KT M03/M07 A3035 RMK A01 T10281070  RH  073%=      5-min Rain = 0
KCES 100550Z 30005KT M03/M07 A3035 RMK A01 T10261069  RH  072%=      5-min Rain = 0
KCES 100555Z 30004KT M02/M07 A3035 RMK A01 T10231069  RH  070%=      5-min Rain = 0

Page generated in 0.0086 seconds.